createdAt,value
2018-09-25T00:00:14.239Z,0.00
2018-09-25T00:01:14.235Z,0.00
2018-09-25T00:02:14.214Z,0.00
2018-09-25T00:03:14.203Z,0.00
2018-09-25T00:04:14.203Z,0.00
2018-09-25T00:05:14.180Z,0.00
2018-09-25T00:06:14.169Z,0.00
2018-09-25T00:07:14.160Z,0.00
2018-09-25T00:08:14.146Z,0.00
2018-09-25T00:09:14.151Z,0.00
2018-09-25T00:10:14.132Z,0.00
2018-09-25T00:11:14.146Z,0.00
2018-09-25T00:12:14.098Z,0.00
2018-09-25T00:13:14.103Z,0.00
2018-09-25T00:14:14.093Z,0.00
2018-09-25T00:15:14.078Z,0.00
2018-09-25T00:16:14.092Z,0.00
2018-09-25T00:17:14.051Z,0.00
2018-09-25T00:18:14.038Z,0.00
2018-09-25T00:19:14.023Z,0.00
2018-09-25T00:20:14.020Z,0.00
2018-09-25T00:21:14.008Z,0.00
2018-09-25T00:22:14.001Z,0.00
2018-09-25T00:23:13.979Z,0.00
2018-09-25T00:24:13.985Z,0.00
2018-09-25T00:25:13.957Z,0.00
2018-09-25T00:26:13.951Z,0.00
2018-09-25T00:27:13.964Z,0.00
2018-09-25T00:28:13.932Z,0.00
2018-09-25T00:29:13.923Z,0.00
2018-09-25T00:30:13.903Z,0.00
2018-09-25T00:31:13.895Z,0.00
2018-09-25T00:32:13.884Z,0.00
2018-09-25T00:33:13.882Z,0.00
2018-09-25T00:34:13.901Z,0.00
2018-09-25T00:35:13.854Z,0.00
2018-09-25T00:36:13.838Z,0.00
2018-09-25T00:37:13.829Z,0.00
2018-09-25T00:38:13.821Z,0.00
2018-09-25T00:39:13.820Z,0.00
2018-09-25T00:40:13.805Z,0.00
2018-09-25T00:41:13.792Z,0.00
2018-09-25T00:42:13.796Z,0.00
2018-09-25T00:43:13.760Z,0.00
2018-09-25T00:44:13.761Z,0.00
2018-09-25T00:45:13.736Z,0.00
2018-09-25T00:46:13.733Z,0.00
2018-09-25T00:47:13.741Z,0.00
2018-09-25T00:48:13.719Z,0.00
2018-09-25T00:49:13.720Z,0.00
2018-09-25T00:50:13.685Z,0.00
2018-09-25T00:51:13.682Z,0.00
2018-09-25T00:52:13.666Z,0.00
2018-09-25T00:53:13.672Z,0.00
2018-09-25T00:54:13.641Z,0.00
2018-09-25T00:55:13.643Z,0.00
2018-09-25T00:56:13.619Z,0.00
2018-09-25T00:57:13.608Z,0.00
2018-09-25T00:58:13.604Z,0.00
2018-09-25T00:59:13.613Z,0.00
2018-09-25T01:00:13.581Z,0.00
2018-09-25T01:01:13.574Z,0.00
2018-09-25T01:02:13.555Z,0.00
2018-09-25T01:03:13.547Z,0.00
2018-09-25T01:04:13.545Z,0.00
2018-09-25T01:05:13.533Z,0.00
2018-09-25T01:06:13.516Z,0.00
2018-09-25T01:07:13.504Z,0.00
2018-09-25T01:08:13.491Z,0.00
2018-09-25T01:09:13.491Z,0.00
2018-09-25T01:10:13.479Z,0.00
2018-09-25T01:11:13.458Z,0.00
2018-09-25T01:12:13.450Z,0.00
2018-09-25T01:13:13.443Z,0.00
2018-09-25T01:14:13.430Z,0.00
2018-09-25T01:15:13.414Z,0.00
2018-09-25T01:16:13.405Z,0.00
2018-09-25T01:17:13.394Z,0.00
2018-09-25T01:18:13.388Z,0.00
2018-09-25T01:19:13.410Z,0.00
2018-09-25T01:20:13.392Z,0.00
2018-09-25T01:21:13.353Z,0.00
2018-09-25T01:22:13.345Z,0.00
2018-09-25T01:23:13.327Z,0.00
2018-09-25T01:24:13.327Z,0.00
2018-09-25T01:25:13.310Z,0.00
2018-09-25T01:26:13.294Z,0.00
2018-09-25T01:27:13.284Z,0.00
2018-09-25T01:28:13.287Z,0.00
2018-09-25T01:29:13.255Z,0.00
2018-09-25T01:30:13.258Z,0.00
2018-09-25T01:31:13.241Z,0.00
2018-09-25T01:32:13.233Z,0.00
2018-09-25T01:33:13.240Z,0.00
2018-09-25T01:34:13.234Z,0.00
2018-09-25T01:35:13.193Z,0.00
2018-09-25T01:36:13.182Z,0.00
2018-09-25T01:37:13.170Z,0.00
2018-09-25T01:38:13.168Z,0.00
2018-09-25T01:39:13.153Z,0.00
2018-09-25T01:40:13.166Z,0.00
2018-09-25T01:41:13.124Z,0.00
2018-09-25T01:42:13.125Z,0.00
2018-09-25T01:43:13.122Z,0.00
2018-09-25T01:44:13.100Z,0.00
2018-09-25T01:45:13.107Z,0.00
2018-09-25T01:46:13.103Z,0.00
2018-09-25T01:47:13.061Z,0.00
2018-09-25T01:48:13.053Z,0.00
2018-09-25T01:49:13.038Z,0.00
2018-09-25T01:50:13.036Z,0.00
2018-09-25T01:51:13.041Z,0.00
2018-09-25T01:52:13.010Z,0.00
2018-09-25T01:53:13.008Z,0.00
2018-09-25T01:54:12.999Z,0.00
2018-09-25T01:55:12.979Z,0.00
2018-09-25T01:56:12.987Z,0.00
2018-09-25T01:57:12.972Z,0.00
2018-09-25T01:58:12.939Z,0.00
2018-09-25T01:59:12.945Z,0.00
2018-09-25T02:00:12.921Z,0.00
2018-09-25T02:01:12.909Z,0.00
2018-09-25T02:02:12.915Z,0.00
2018-09-25T02:03:12.896Z,0.00
2018-09-25T02:04:12.894Z,0.00
2018-09-25T02:05:12.879Z,0.00
2018-09-25T02:06:12.852Z,0.00
2018-09-25T02:07:12.858Z,0.00
2018-09-25T02:08:12.844Z,0.00
2018-09-25T02:09:12.837Z,0.00
2018-09-25T02:10:12.823Z,0.00
2018-09-25T02:11:12.805Z,0.00
2018-09-25T02:12:12.809Z,0.00
2018-09-25T02:13:12.779Z,0.00
2018-09-25T02:14:12.777Z,0.00
2018-09-25T02:15:12.769Z,0.00
2018-09-25T02:16:12.751Z,0.00
2018-09-25T02:17:12.765Z,0.00
2018-09-25T02:18:12.742Z,0.00
2018-09-25T02:19:12.733Z,0.00
2018-09-25T02:20:12.701Z,0.00
2018-09-25T02:21:12.688Z,0.00
2018-09-25T02:22:12.687Z,0.00
2018-09-25T02:23:12.679Z,0.00
2018-09-25T02:24:12.679Z,0.00
2018-09-25T02:25:12.654Z,0.00
2018-09-25T02:26:12.634Z,0.00
2018-09-25T02:27:12.628Z,0.00
2018-09-25T02:28:12.618Z,0.00
2018-09-25T02:29:12.610Z,0.00
2018-09-25T02:30:12.604Z,0.00
2018-09-25T02:31:12.588Z,0.00
2018-09-25T02:32:12.672Z,0.00
2018-09-25T02:33:12.558Z,0.00
2018-09-25T02:34:12.569Z,0.00
2018-09-25T02:35:12.550Z,0.00
2018-09-25T02:36:12.536Z,0.00
2018-09-25T02:37:12.525Z,0.00
2018-09-25T02:38:12.511Z,0.00
2018-09-25T02:39:12.503Z,0.00
2018-09-25T02:40:12.485Z,0.00
2018-09-25T02:41:12.485Z,0.00
2018-09-25T02:42:12.493Z,0.00
2018-09-25T02:43:12.458Z,0.00
2018-09-25T02:44:12.442Z,0.00
2018-09-25T02:45:12.430Z,0.00
2018-09-25T02:46:12.436Z,0.00
2018-09-25T02:47:12.418Z,0.00
2018-09-25T02:48:12.465Z,0.00
2018-09-25T02:49:12.390Z,0.00
2018-09-25T02:50:12.388Z,0.00
2018-09-25T02:51:12.365Z,0.00
2018-09-25T02:52:12.353Z,0.00
2018-09-25T02:53:12.372Z,0.00
2018-09-25T02:54:12.352Z,0.00
2018-09-25T02:55:12.339Z,0.00
2018-09-25T02:56:12.319Z,0.00
2018-09-25T02:57:12.308Z,0.00
2018-09-25T02:58:12.295Z,0.00
2018-09-25T02:59:12.278Z,0.00
2018-09-25T03:00:12.291Z,0.00
2018-09-25T03:01:12.263Z,0.00
2018-09-25T03:02:12.256Z,0.00
2018-09-25T03:03:12.234Z,0.00
2018-09-25T03:04:12.227Z,0.00
2018-09-25T03:05:12.239Z,0.00
2018-09-25T03:06:12.227Z,0.00
2018-09-25T03:07:12.198Z,0.00
2018-09-25T03:08:12.194Z,0.00
2018-09-25T03:09:12.175Z,0.00
2018-09-25T03:10:12.163Z,0.00
2018-09-25T03:11:12.160Z,0.00
2018-09-25T03:12:12.150Z,0.00
2018-09-25T03:13:12.129Z,0.00
2018-09-25T03:14:12.120Z,0.00
2018-09-25T03:15:12.193Z,0.00
2018-09-25T03:16:12.104Z,0.00
2018-09-25T03:17:12.097Z,0.00
2018-09-25T03:18:12.094Z,0.00
2018-09-25T03:19:12.072Z,0.00
2018-09-25T03:20:12.059Z,0.00
2018-09-25T03:21:12.054Z,0.00
2018-09-25T03:22:12.045Z,0.00
2018-09-25T03:23:12.022Z,0.00
2018-09-25T03:24:12.006Z,0.00
2018-09-25T03:25:12.027Z,0.00
2018-09-25T03:26:11.991Z,0.00
2018-09-25T03:27:11.995Z,0.00
2018-09-25T03:28:11.987Z,0.00
2018-09-25T03:29:11.960Z,0.00
2018-09-25T03:30:11.944Z,0.00
2018-09-25T03:31:11.931Z,0.00
2018-09-25T03:32:11.949Z,0.00
2018-09-25T03:33:11.918Z,0.00
2018-09-25T03:34:11.902Z,0.00
2018-09-25T03:35:11.892Z,0.00
2018-09-25T03:36:11.876Z,0.00
2018-09-25T03:37:11.875Z,0.00
2018-09-25T03:38:11.872Z,0.00
2018-09-25T03:39:11.853Z,0.00
2018-09-25T03:40:11.847Z,0.00
2018-09-25T03:41:11.843Z,0.00
2018-09-25T03:42:11.816Z,0.00
2018-09-25T03:43:11.813Z,0.00
2018-09-25T03:44:11.790Z,0.00
2018-09-25T03:45:11.781Z,0.00
2018-09-25T03:46:11.778Z,0.00
2018-09-25T03:47:11.773Z,0.00
2018-09-25T03:48:11.757Z,0.00
2018-09-25T03:49:11.744Z,0.00
2018-09-25T03:50:11.735Z,0.00
2018-09-25T03:51:11.743Z,0.00
2018-09-25T03:52:11.731Z,0.00
2018-09-25T03:53:11.726Z,0.00
2018-09-25T03:54:11.687Z,0.00
2018-09-25T03:55:11.671Z,0.00
2018-09-25T03:56:11.661Z,0.00
2018-09-25T03:57:11.652Z,0.00
2018-09-25T03:58:11.662Z,0.00
2018-09-25T03:59:11.640Z,0.00
2018-09-25T04:00:11.630Z,0.00
2018-09-25T04:01:11.619Z,0.00
2018-09-25T04:02:11.601Z,0.00
2018-09-25T04:03:11.589Z,0.00
2018-09-25T04:04:11.616Z,0.00
2018-09-25T04:05:11.577Z,0.00
2018-09-25T04:06:11.622Z,0.00
2018-09-25T04:07:11.544Z,0.00
2018-09-25T04:08:11.543Z,0.00
2018-09-25T04:09:11.527Z,0.00
2018-09-25T04:10:11.524Z,0.00
2018-09-25T04:11:11.513Z,0.00
2018-09-25T04:12:11.497Z,0.00
2018-09-25T04:13:11.501Z,0.00
2018-09-25T04:14:11.497Z,0.00
2018-09-25T04:15:11.458Z,0.00
2018-09-25T04:16:11.449Z,0.00
2018-09-25T04:17:11.440Z,0.00
2018-09-25T04:18:11.429Z,0.00
2018-09-25T04:19:11.460Z,0.00
2018-09-25T04:20:11.410Z,0.00
2018-09-25T04:21:11.399Z,0.00
2018-09-25T04:22:11.388Z,0.00
2018-09-25T04:23:11.394Z,0.00
2018-09-25T04:24:11.367Z,0.00
2018-09-25T04:25:11.355Z,0.00
2018-09-25T04:26:11.344Z,0.00
2018-09-25T04:27:11.342Z,0.00
2018-09-25T04:28:11.327Z,0.00
2018-09-25T04:29:11.311Z,0.00
2018-09-25T04:30:11.308Z,0.00
2018-09-25T04:31:11.300Z,0.00
2018-09-25T04:32:11.283Z,0.00
2018-09-25T04:33:11.285Z,0.00
2018-09-25T04:34:11.253Z,0.00
2018-09-25T04:35:11.238Z,0.00
2018-09-25T04:36:11.237Z,0.00
2018-09-25T04:37:11.336Z,0.00
2018-09-25T04:38:11.223Z,0.00
2018-09-25T04:39:11.196Z,0.00
2018-09-25T04:40:11.192Z,0.00
2018-09-25T04:41:11.176Z,0.00
2018-09-25T04:42:11.176Z,0.00
2018-09-25T04:43:11.175Z,0.00
2018-09-25T04:44:11.154Z,0.00
2018-09-25T04:45:11.134Z,0.00
2018-09-25T04:46:11.124Z,0.00
2018-09-25T04:47:11.110Z,4.00
2018-09-25T04:48:11.111Z,4.00
2018-09-25T04:49:11.093Z,4.00
2018-09-25T04:50:11.109Z,0.00
2018-09-25T04:51:11.085Z,0.00
2018-09-25T04:52:11.056Z,4.00
2018-09-25T04:53:11.053Z,0.00
2018-09-25T04:54:11.042Z,4.00
2018-09-25T04:55:11.027Z,4.00
2018-09-25T04:56:11.019Z,4.00
2018-09-25T04:57:11.179Z,4.00
2018-09-25T04:58:11.003Z,8.00
2018-09-25T04:59:10.977Z,8.00
2018-09-25T05:00:10.992Z,8.00
2018-09-25T05:01:10.954Z,8.00
2018-09-25T05:02:10.949Z,12.00
2018-09-25T05:03:10.950Z,12.00
2018-09-25T05:04:10.927Z,12.00
2018-09-25T05:05:10.935Z,16.00
2018-09-25T05:06:10.925Z,16.00
2018-09-25T05:07:10.901Z,20.00
2018-09-25T05:08:10.954Z,24.00
2018-09-25T05:09:10.882Z,28.00
2018-09-25T05:10:10.857Z,28.00
2018-09-25T05:11:10.878Z,36.00
2018-09-25T05:12:10.882Z,40.00
2018-09-25T05:13:10.890Z,44.00
2018-09-25T05:14:10.845Z,48.00
2018-09-25T05:15:10.808Z,56.00
2018-09-25T05:16:10.812Z,60.00
2018-09-25T05:17:10.785Z,72.00
2018-09-25T05:18:10.844Z,80.00
2018-09-25T05:19:10.762Z,88.00
2018-09-25T05:20:10.769Z,96.00
2018-09-25T05:21:10.763Z,108.00
2018-09-25T05:22:10.734Z,116.00
2018-09-25T05:23:10.761Z,128.00
2018-09-25T05:24:10.703Z,140.00
2018-09-25T05:25:10.701Z,148.00
2018-09-25T05:26:10.688Z,168.00
2018-09-25T05:27:10.676Z,180.00
2018-09-25T05:28:10.680Z,192.00
2018-09-25T05:29:10.651Z,208.00
2018-09-25T05:30:10.638Z,224.00
2018-09-25T05:31:10.631Z,240.00
2018-09-25T05:32:10.613Z,252.00
2018-09-25T05:33:10.617Z,264.00
2018-09-25T05:34:10.601Z,268.00
2018-09-25T05:35:10.589Z,272.00
2018-09-25T05:36:10.601Z,276.00
2018-09-25T05:37:10.563Z,280.00
2018-09-25T05:38:10.576Z,288.00
2018-09-25T05:39:10.535Z,300.00
2018-09-25T05:40:10.541Z,308.00
2018-09-25T05:41:10.524Z,324.00
2018-09-25T05:42:10.508Z,332.00
2018-09-25T05:43:10.510Z,352.00
2018-09-25T05:44:10.494Z,352.00
2018-09-25T05:45:10.473Z,368.00
2018-09-25T05:46:10.469Z,368.00
2018-09-25T05:47:10.469Z,368.00
2018-09-25T05:48:10.477Z,384.00
2018-09-25T05:49:10.443Z,392.00
2018-09-25T05:50:10.424Z,388.00
2018-09-25T05:51:10.414Z,392.00
2018-09-25T05:52:10.397Z,396.00
2018-09-25T05:53:10.406Z,412.00
2018-09-25T05:54:10.388Z,416.00
2018-09-25T05:55:10.377Z,412.00
2018-09-25T05:56:10.354Z,424.00
2018-09-25T05:57:10.358Z,428.00
2018-09-25T05:58:10.338Z,436.00
2018-09-25T05:59:10.358Z,448.00
2018-09-25T06:00:10.328Z,488.00
2018-09-25T06:01:10.436Z,476.00
2018-09-25T06:02:10.298Z,488.00
2018-09-25T06:03:10.294Z,516.00
2018-09-25T06:04:10.270Z,564.00
2018-09-25T06:05:10.262Z,604.00
2018-09-25T06:06:10.252Z,652.00
2018-09-25T06:07:10.241Z,736.00
2018-09-25T06:08:10.248Z,804.00
2018-09-25T06:09:10.263Z,996.00
2018-09-25T06:10:10.207Z,1216.00
2018-09-25T06:11:10.201Z,1560.00
2018-09-25T06:12:10.192Z,4240.00
2018-09-25T06:13:10.189Z,7796.00
2018-09-25T06:14:10.160Z,11744.00
2018-09-25T06:15:10.147Z,9760.00
2018-09-25T06:16:10.148Z,6652.00
2018-09-25T06:17:10.128Z,15200.00
2018-09-25T06:18:10.131Z,11964.00
2018-09-25T06:19:10.116Z,16992.00
2018-09-25T06:20:10.128Z,16128.00
2018-09-25T06:21:10.123Z,13292.00
2018-09-25T06:22:10.084Z,22560.00
2018-09-25T06:23:10.082Z,20352.00
2018-09-25T06:24:10.050Z,18560.00
2018-09-25T06:25:10.041Z,22720.00
2018-09-25T06:26:10.038Z,16800.00
2018-09-25T06:27:10.025Z,7424.00
2018-09-25T06:28:10.016Z,12772.00
2018-09-25T06:29:10.004Z,12520.00
2018-09-25T06:30:09.988Z,8684.00
2018-09-25T06:31:09.980Z,8148.00
2018-09-25T06:32:09.992Z,6584.00
2018-09-25T06:33:09.968Z,5064.00
2018-09-25T06:34:10.416Z,4900.00
2018-09-25T06:35:09.929Z,4912.00
2018-09-25T06:36:09.919Z,7896.00
2018-09-25T06:37:09.924Z,16416.00
2018-09-25T06:38:09.916Z,11740.00
2018-09-25T06:39:09.894Z,5076.00
2018-09-25T06:40:09.888Z,5052.00
2018-09-25T06:41:09.891Z,6408.00
2018-09-25T06:42:09.858Z,7612.00
2018-09-25T06:43:09.856Z,5380.00
2018-09-25T06:44:09.837Z,11172.00
2018-09-25T06:45:09.834Z,30624.00
2018-09-25T06:46:09.811Z,41728.00
2018-09-25T06:47:09.815Z,23968.00
2018-09-25T06:48:09.805Z,8036.00
2018-09-25T06:49:09.778Z,5544.00
2018-09-25T06:50:09.769Z,7504.00
2018-09-25T06:51:09.764Z,5948.00
2018-09-25T06:52:09.741Z,5912.00
2018-09-25T06:53:09.749Z,5820.00
2018-09-25T06:54:09.725Z,5980.00
2018-09-25T06:55:09.749Z,38432.00
2018-09-25T06:56:09.706Z,37344.00
2018-09-25T06:57:09.697Z,24736.00
2018-09-25T06:58:09.708Z,5916.00
2018-09-25T06:59:09.667Z,5920.00
2018-09-25T07:00:09.671Z,5920.00
2018-09-25T07:01:09.649Z,5940.00
2018-09-25T07:02:09.640Z,6048.00
2018-09-25T07:03:09.620Z,6216.00
2018-09-25T07:04:09.624Z,6260.00
2018-09-25T07:05:09.605Z,52832.00
2018-09-25T07:06:09.593Z,55232.00
2018-09-25T07:07:09.586Z,42176.00
2018-09-25T07:08:09.588Z,48160.00
2018-09-25T07:09:09.562Z,52768.00
2018-09-25T07:10:09.668Z,45120.00
2018-09-25T07:11:09.532Z,11580.00
2018-09-25T07:12:09.521Z,12348.00
2018-09-25T07:13:09.528Z,14540.00
2018-09-25T07:14:09.511Z,7292.00
2018-09-25T07:15:09.498Z,10696.00
2018-09-25T07:16:09.478Z,6260.00
2018-09-25T07:17:09.469Z,6060.00
2018-09-25T07:18:09.508Z,6284.00
2018-09-25T07:19:09.454Z,6304.00
2018-09-25T07:20:09.444Z,6344.00
2018-09-25T07:21:09.434Z,6704.00
2018-09-25T07:22:09.419Z,7144.00
2018-09-25T07:23:09.411Z,7252.00
2018-09-25T07:24:09.391Z,6944.00
2018-09-25T07:25:09.452Z,6848.00
2018-09-25T07:26:09.391Z,6672.00
2018-09-25T07:27:09.365Z,6552.00
2018-09-25T07:28:09.357Z,6628.00
2018-09-25T07:29:09.342Z,6564.00
2018-09-25T07:30:09.329Z,6620.00
2018-09-25T07:31:09.435Z,7308.00
2018-09-25T07:32:09.324Z,6964.00
2018-09-25T07:33:09.310Z,13432.00
2018-09-25T07:34:09.287Z,16832.00
2018-09-25T07:35:09.287Z,19264.00
2018-09-25T07:36:09.258Z,63232.00
2018-09-25T07:37:09.251Z,79072.00
2018-09-25T07:38:09.256Z,78016.00
2018-09-25T07:39:09.235Z,57440.00
2018-09-25T07:40:09.223Z,20512.00
2018-09-25T07:41:09.210Z,15968.00
2018-09-25T07:42:09.195Z,10756.00
2018-09-25T07:43:09.201Z,10792.00
2018-09-25T07:44:09.183Z,12988.00
2018-09-25T07:45:09.163Z,9868.00
2018-09-25T07:46:09.154Z,15616.00
2018-09-25T07:47:09.146Z,45376.00
2018-09-25T07:48:09.186Z,75200.00
2018-09-25T07:49:09.141Z,81216.00
2018-09-25T07:50:09.111Z,78464.00
2018-09-25T07:51:09.103Z,78624.00
2018-09-25T07:52:09.109Z,81152.00
2018-09-25T07:53:09.079Z,77632.00
2018-09-25T07:54:09.064Z,75360.00
2018-09-25T07:55:09.069Z,77664.00
2018-09-25T07:56:09.074Z,73632.00
2018-09-25T07:57:09.030Z,48320.00
2018-09-25T07:58:09.032Z,18272.00
2018-09-25T07:59:09.015Z,10876.00
2018-09-25T08:00:09.016Z,10400.00
2018-09-25T08:01:08.995Z,9580.00
2018-09-25T08:02:08.978Z,9120.00
2018-09-25T08:03:09.031Z,9264.00
2018-09-25T08:04:08.961Z,9312.00
2018-09-25T08:05:08.978Z,8968.00
2018-09-25T08:06:08.941Z,8460.00
2018-09-25T08:07:08.922Z,8352.00
2018-09-25T08:08:08.920Z,8532.00
2018-09-25T08:09:09.017Z,8256.00
2018-09-25T08:10:08.906Z,7536.00
2018-09-25T08:11:08.884Z,7196.00
2018-09-25T08:12:08.881Z,7048.00
2018-09-25T08:13:08.871Z,6876.00
2018-09-25T08:14:08.851Z,6752.00
2018-09-25T08:15:08.836Z,6584.00
2018-09-25T08:16:08.824Z,6512.00
2018-09-25T08:17:08.814Z,6436.00
2018-09-25T08:18:08.831Z,6364.00
2018-09-25T08:19:08.801Z,6316.00
2018-09-25T08:20:08.800Z,6280.00
2018-09-25T08:21:08.773Z,6216.00
2018-09-25T08:22:08.774Z,6152.00
2018-09-25T08:23:08.771Z,6120.00
2018-09-25T08:24:08.745Z,6084.00
2018-09-25T08:25:08.729Z,6056.00
2018-09-25T08:26:08.723Z,6012.00
2018-09-25T08:27:08.703Z,5984.00
2018-09-25T08:28:08.734Z,5964.00
2018-09-25T08:29:08.688Z,5936.00
2018-09-25T08:30:08.683Z,5872.00
2018-09-25T08:31:08.683Z,5812.00
2018-09-25T08:32:08.661Z,5740.00
2018-09-25T08:33:08.660Z,5684.00
2018-09-25T08:34:08.637Z,5628.00
2018-09-25T08:35:08.742Z,5572.00
2018-09-25T08:36:08.617Z,5520.00
2018-09-25T08:37:08.603Z,5456.00
2018-09-25T08:38:08.619Z,5404.00
2018-09-25T08:39:08.611Z,5360.00
2018-09-25T08:40:08.593Z,5312.00
2018-09-25T08:41:08.560Z,5280.00
2018-09-25T08:42:08.546Z,5236.00
2018-09-25T08:43:08.554Z,5192.00
2018-09-25T08:44:08.524Z,5164.00
2018-09-25T08:45:08.514Z,5124.00
2018-09-25T08:46:08.502Z,5092.00
2018-09-25T08:47:08.490Z,5068.00
2018-09-25T08:48:08.491Z,5076.00
2018-09-25T08:49:08.465Z,5048.00
2018-09-25T08:50:08.457Z,5020.00
2018-09-25T08:51:08.468Z,5008.00
2018-09-25T08:52:08.432Z,5004.00
2018-09-25T08:53:08.436Z,4996.00
2018-09-25T08:54:08.425Z,5004.00
2018-09-25T08:55:08.406Z,4996.00
2018-09-25T08:56:08.395Z,4996.00
2018-09-25T08:57:08.382Z,5000.00
2018-09-25T08:58:08.377Z,5004.00
2018-09-25T08:59:08.355Z,4980.00
2018-09-25T09:00:08.342Z,4952.00
2018-09-25T09:01:08.334Z,4956.00
2018-09-25T09:02:08.322Z,5000.00
2018-09-25T09:03:08.327Z,5436.00
2018-09-25T09:04:08.326Z,15456.00
2018-09-25T09:05:08.295Z,15308.00
2018-09-25T09:06:08.277Z,5192.00
2018-09-25T09:07:08.260Z,4880.00
2018-09-25T09:08:08.308Z,4820.00
2018-09-25T09:09:08.245Z,4804.00
2018-09-25T09:10:08.229Z,4808.00
2018-09-25T09:11:08.218Z,4804.00
2018-09-25T09:12:08.204Z,4768.00
2018-09-25T09:13:08.210Z,4752.00
2018-09-25T09:14:08.215Z,4776.00
2018-09-25T09:15:08.172Z,4784.00
2018-09-25T09:16:08.165Z,4776.00
2018-09-25T09:17:08.165Z,4780.00
2018-09-25T09:18:08.151Z,4796.00
2018-09-25T09:19:08.126Z,4816.00
2018-09-25T09:20:08.188Z,4832.00
2018-09-25T09:21:08.109Z,4856.00
2018-09-25T09:22:08.096Z,4880.00
2018-09-25T09:23:08.103Z,4928.00
2018-09-25T09:24:08.070Z,4988.00
2018-09-25T09:25:08.113Z,5052.00
2018-09-25T09:26:08.053Z,5136.00
2018-09-25T09:27:08.052Z,5368.00
2018-09-25T09:28:08.047Z,6048.00
2018-09-25T09:29:08.018Z,29728.00
2018-09-25T09:30:08.002Z,64288.00
2018-09-25T09:31:07.990Z,75104.00
2018-09-25T09:32:07.977Z,49600.00
2018-09-25T09:33:08.024Z,12064.00
2018-09-25T09:34:08.529Z,5328.00
2018-09-25T09:35:07.966Z,5184.00
2018-09-25T09:36:07.944Z,5132.00
2018-09-25T09:37:07.932Z,5056.00
2018-09-25T09:38:07.914Z,5000.00
2018-09-25T09:39:07.926Z,4936.00
2018-09-25T09:40:07.903Z,4920.00
2018-09-25T09:41:07.904Z,4888.00
2018-09-25T09:42:07.948Z,4896.00
2018-09-25T09:43:07.866Z,4888.00
2018-09-25T09:44:07.851Z,4888.00
2018-09-25T09:45:07.853Z,4880.00
2018-09-25T09:46:07.836Z,4876.00
2018-09-25T09:47:07.825Z,4860.00
2018-09-25T09:48:07.825Z,4864.00
2018-09-25T09:49:07.800Z,4888.00
2018-09-25T09:50:07.803Z,4884.00
2018-09-25T09:51:07.770Z,4900.00
2018-09-25T09:52:07.766Z,4936.00
2018-09-25T09:53:07.748Z,4996.00
2018-09-25T09:54:07.744Z,5108.00
2018-09-25T09:55:07.746Z,5292.00
2018-09-25T09:56:07.731Z,5584.00
2018-09-25T09:57:07.704Z,6024.00
2018-09-25T09:58:07.700Z,11316.00
2018-09-25T09:59:07.688Z,45728.00
2018-09-25T10:00:07.682Z,69184.00
2018-09-25T10:01:07.686Z,66912.00
2018-09-25T10:02:07.651Z,66144.00
2018-09-25T10:03:07.653Z,64928.00
2018-09-25T10:04:07.630Z,61696.00
2018-09-25T10:05:07.625Z,31872.00
2018-09-25T10:06:07.616Z,6188.00
2018-09-25T10:07:07.681Z,5432.00
2018-09-25T10:08:07.597Z,5300.00
2018-09-25T10:09:07.578Z,5220.00
2018-09-25T10:10:07.567Z,5124.00
2018-09-25T10:11:07.553Z,5004.00
2018-09-25T10:12:07.555Z,4928.00
2018-09-25T10:13:07.566Z,4908.00
2018-09-25T10:14:07.525Z,4888.00
2018-09-25T10:15:07.511Z,4872.00
2018-09-25T10:16:07.510Z,4748.00
2018-09-25T10:17:07.492Z,4716.00
2018-09-25T10:18:07.485Z,4856.00
2018-09-25T10:19:07.496Z,4744.00
2018-09-25T10:20:07.469Z,4824.00
2018-09-25T10:21:07.461Z,4564.00
2018-09-25T10:22:07.452Z,4480.00
2018-09-25T10:23:07.422Z,4588.00
2018-09-25T10:24:07.460Z,4864.00
2018-09-25T10:25:07.402Z,5028.00
2018-09-25T10:26:07.428Z,3408.00
2018-09-25T10:27:07.388Z,2568.00
2018-09-25T10:28:07.364Z,4244.00
2018-09-25T10:29:07.366Z,2988.00
2018-09-25T10:30:07.352Z,3256.00
2018-09-25T10:31:07.340Z,7244.00
2018-09-25T10:32:07.345Z,23072.00
2018-09-25T10:33:07.317Z,48992.00
2018-09-25T10:34:07.751Z,54496.00
2018-09-25T10:35:07.301Z,53824.00
2018-09-25T10:36:07.281Z,18336.00
2018-09-25T10:37:07.283Z,28256.00
2018-09-25T10:38:07.263Z,2748.00
2018-09-25T10:39:07.265Z,3136.00
2018-09-25T10:40:07.245Z,26848.00
2018-09-25T10:41:07.313Z,14808.00
2018-09-25T10:42:07.229Z,4616.00
2018-09-25T10:43:07.206Z,3480.00
2018-09-25T10:44:07.204Z,3708.00
2018-09-25T10:45:07.188Z,4120.00
2018-09-25T10:46:07.171Z,4352.00
2018-09-25T10:47:07.169Z,4072.00
2018-09-25T10:48:07.148Z,4276.00
2018-09-25T10:49:07.148Z,4516.00
2018-09-25T10:50:07.164Z,3476.00
2018-09-25T10:51:07.125Z,3952.00
2018-09-25T10:52:07.169Z,3168.00
2018-09-25T10:53:07.104Z,3596.00
2018-09-25T10:54:07.093Z,2836.00
2018-09-25T10:55:07.069Z,2724.00
2018-09-25T10:56:07.158Z,2732.00
2018-09-25T10:57:07.117Z,2660.00
2018-09-25T10:58:07.048Z,3392.00
2018-09-25T10:59:07.066Z,3344.00
2018-09-25T11:00:07.024Z,2784.00
2018-09-25T11:01:07.013Z,2540.00
2018-09-25T11:02:07.034Z,2696.00
2018-09-25T11:03:07.117Z,2772.00
2018-09-25T11:04:06.987Z,3132.00
2018-09-25T11:05:06.969Z,2496.00
2018-09-25T11:06:06.954Z,2316.00
2018-09-25T11:07:06.985Z,2336.00
2018-09-25T11:08:06.943Z,2312.00
2018-09-25T11:09:06.925Z,2304.00
2018-09-25T11:10:06.956Z,3012.00
2018-09-25T11:11:06.907Z,3012.00
2018-09-25T11:12:06.976Z,2948.00
2018-09-25T11:13:06.899Z,2692.00
2018-09-25T11:14:06.867Z,3064.00
2018-09-25T11:15:06.859Z,3092.00
2018-09-25T11:16:06.861Z,3176.00
2018-09-25T11:17:06.940Z,3292.00
2018-09-25T11:18:06.846Z,3336.00
2018-09-25T11:19:06.820Z,3448.00
2018-09-25T11:20:06.806Z,3532.00
2018-09-25T11:21:06.792Z,3580.00
2018-09-25T11:22:06.809Z,3660.00
2018-09-25T11:23:06.772Z,3680.00
2018-09-25T11:24:06.774Z,3704.00
2018-09-25T11:25:06.760Z,3668.00
2018-09-25T11:26:06.735Z,3720.00
2018-09-25T11:27:06.732Z,3752.00
2018-09-25T11:28:06.724Z,3696.00
2018-09-25T11:29:06.713Z,2956.00
2018-09-25T11:30:06.704Z,3508.00
2018-09-25T11:31:06.685Z,3312.00
2018-09-25T11:32:06.676Z,3216.00
2018-09-25T11:33:06.669Z,3048.00
2018-09-25T11:34:06.669Z,2984.00
2018-09-25T11:35:06.653Z,2960.00
2018-09-25T11:36:06.635Z,2984.00
2018-09-25T11:37:06.624Z,3132.00
2018-09-25T11:38:06.612Z,3104.00
2018-09-25T11:39:06.625Z,3064.00
2018-09-25T11:40:06.589Z,3068.00
2018-09-25T11:41:06.619Z,3088.00
2018-09-25T11:42:06.574Z,3112.00
2018-09-25T11:43:06.557Z,2860.00
2018-09-25T11:44:06.555Z,2444.00
2018-09-25T11:45:06.565Z,2860.00
2018-09-25T11:46:06.599Z,2688.00
2018-09-25T11:47:06.606Z,2776.00
2018-09-25T11:48:06.500Z,2760.00
2018-09-25T11:49:06.512Z,2776.00
2018-09-25T11:50:06.476Z,2844.00
2018-09-25T11:51:06.459Z,2964.00
2018-09-25T11:52:06.447Z,3080.00
2018-09-25T11:53:06.434Z,3176.00
2018-09-25T11:54:06.430Z,3096.00
2018-09-25T11:55:06.429Z,3004.00
2018-09-25T11:56:06.410Z,3040.00
2018-09-25T11:57:06.396Z,2996.00
2018-09-25T11:58:06.392Z,2916.00
2018-09-25T11:59:06.373Z,2864.00
2018-09-25T12:00:06.370Z,2648.00
2018-09-25T12:01:06.364Z,2620.00
2018-09-25T12:02:06.353Z,2556.00
2018-09-25T12:03:06.327Z,2528.00
2018-09-25T12:04:06.326Z,2500.00
2018-09-25T12:05:06.312Z,2712.00
2018-09-25T12:06:06.294Z,2436.00
2018-09-25T12:07:06.287Z,2384.00
2018-09-25T12:08:06.278Z,2364.00
2018-09-25T12:09:06.263Z,2432.00
2018-09-25T12:10:06.256Z,2400.00
2018-09-25T12:11:06.240Z,2416.00
2018-09-25T12:12:06.225Z,2532.00
2018-09-25T12:13:06.209Z,2528.00
2018-09-25T12:14:06.208Z,2360.00
2018-09-25T12:15:06.211Z,2692.00
2018-09-25T12:16:06.183Z,2712.00
2018-09-25T12:17:06.187Z,2300.00
2018-09-25T12:18:06.158Z,2328.00
2018-09-25T12:19:06.151Z,2376.00
2018-09-25T12:20:06.153Z,2364.00
2018-09-25T12:21:06.147Z,2416.00
2018-09-25T12:22:06.118Z,2284.00
2018-09-25T12:23:06.130Z,2304.00
2018-09-25T12:24:06.128Z,2844.00
2018-09-25T12:25:06.186Z,2848.00
2018-09-25T12:26:06.084Z,2736.00
2018-09-25T12:27:06.073Z,2704.00
2018-09-25T12:28:06.055Z,2656.00
2018-09-25T12:29:06.048Z,2652.00
2018-09-25T12:30:06.031Z,2688.00
2018-09-25T12:31:06.037Z,1956.00
2018-09-25T12:32:06.016Z,1888.00
2018-09-25T12:33:06.127Z,1816.00